Time;durP1;ratioP1;P1;durP2;ratioP2;P2;SDS_P1;SDS_P2;PMS_P1;PMS_P2;Temp;Humidity;BMP_temperature;BMP_pressure;BME280_temperature;BME280_humidity;BME280_pressure;Samples;Min_cycle;Max_cycle;Signal;HPM_P1;HPM_P2
2023/10/22 06:06:33;;;;;;;;;2.00;1.67;;;;;;;;6266984;22;46430;-71
2023/10/22 06:08:58;;;;;;;;;2.00;1.00;;;;;;;;6306208;22;46300;-71
2023/10/22 06:11:23;;;;;;;;;3.33;1.00;;;;;;;;6306353;22;45226;-71
2023/10/22 06:13:48;;;;;;;;;0.33;0.33;;;;;;;;6308502;22;45323;-71
2023/10/22 06:16:14;;;;;;;;;3.00;2.67;;;;;;;;6307806;22;45332;-72
2023/10/22 06:18:39;;;;;;;;;1.00;1.00;;;;;;;;6308459;22;45243;-72
2023/10/22 06:21:14;;;;;;;;;2.00;0.33;;;;;;;;6278961;22;45181;-72
2023/10/22 06:23:39;;;;;;;;;3.67;1.00;;;;;;;;6279316;22;45286;-72
2023/10/22 06:26:05;;;;;;;;;3.33;1.00;;;;;;;;6306842;22;45821;-71
2023/10/22 06:28:31;;;;;;;;;2.67;1.00;;;;;;;;6306696;22;46044;-71
2023/10/22 06:31:03;;;;;;;;;2.00;0.67;;;;;;;;6308092;22;45165;-71
2023/10/22 06:33:28;;;;;;;;;3.67;0.67;;;;;;;;6281255;22;45232;-72
2023/10/22 06:35:53;;;;;;;;;6.00;1.00;;;;;;;;6308422;22;45134;-71
2023/10/22 06:38:18;;;;;;;;;2.67;1.00;;;;;;;;6309038;22;45277;-71
2023/10/22 06:40:44;;;;;;;;;2.00;1.00;;;;;;;;6279978;22;45227;-70
2023/10/22 06:43:09;;;;;;;;;2.00;2.00;;;;;;;;6309848;22;45485;-71
2023/10/22 06:45:35;;;;;;;;;1.00;1.00;;;;;;;;6309292;22;45322;-70
2023/10/22 06:48:00;;;;;;;;;3.00;1.00;;;;;;;;6309270;22;45264;-70
2023/10/22 06:50:25;;;;;;;;;2.00;2.00;;;;;;;;6308677;22;45300;-70
2023/10/22 06:52:51;;;;;;;;;3.33;2.00;;;;;;;;6309347;22;45194;-70
2023/10/22 06:55:16;;;;;;;;;5.00;3.00;;;;;;;;6308638;22;45362;-70
2023/10/22 06:57:43;;;;;;;;;8.00;6.00;;;;;;;;6309034;22;46235;-71
2023/10/22 07:00:10;;;;;;;;;3.00;2.00;;;;;;;;6308920;22;45279;-70
2023/10/22 07:02:35;;;;;;;;;8.00;5.33;;;;;;;;6309558;22;45329;-70
2023/10/22 07:05:00;;;;;;;;;4.00;4.00;;;;;;;;6307502;22;45504;-71
2023/10/22 07:07:26;;;;;;;;;4.00;4.00;;;;;;;;6280113;22;47017;-71
2023/10/22 07:09:51;;;;;;;;;5.00;3.00;;;;;;;;6308931;22;45234;-70
2023/10/22 07:12:16;;;;;;;;;3.67;2.00;;;;;;;;6309339;22;45401;-70
2023/10/22 07:14:42;;;;;;;;;8.67;4.67;;;;;;;;6309144;22;45224;-71
2023/10/22 07:17:07;;;;;;;;;3.00;2.00;;;;;;;;6280409;22;46078;-71
2023/10/22 07:19:33;;;;;;;;;7.33;7.00;;;;;;;;6281553;22;45205;-70
2023/10/22 07:21:58;;;;;;;;;7.67;4.67;;;;;;;;6308449;22;45497;-71
2023/10/22 07:24:23;;;;;;;;;3.00;3.00;;;;;;;;6308377;22;45159;-70
2023/10/22 07:26:49;;;;;;;;;3.00;2.00;;;;;;;;6281069;22;46584;-70
2023/10/22 07:29:14;;;;;;;;;7.67;5.33;;;;;;;;6309750;22;45230;-71
2023/10/22 07:31:39;;;;;;;;;6.00;4.00;;;;;;;;6281181;22;45300;-71
2023/10/22 07:34:05;;;;;;;;;4.00;2.00;;;;;;;;6281276;22;45898;-71
2023/10/22 07:36:30;;;;;;;;;9.67;5.00;;;;;;;;6279097;22;46994;-71
2023/10/22 07:38:56;;;;;;;;;3.00;2.33;;;;;;;;6308683;22;45365;-71
2023/10/22 07:41:22;;;;;;;;;2.00;2.00;;;;;;;;6308703;22;45141;-71
2023/10/22 07:43:48;;;;;;;;;7.67;5.00;;;;;;;;6308244;22;45435;-71
2023/10/22 07:46:15;;;;;;;;;6.00;5.00;;;;;;;;6308338;22;45286;-70
2023/10/22 07:48:40;;;;;;;;;5.00;3.00;;;;;;;;6280949;22;45379;-70
2023/10/22 07:51:15;;;;;;;;;4.00;4.00;;;;;;;;6308465;22;45351;-71
2023/10/22 07:53:41;;;;;;;;;4.00;4.00;;;;;;;;6308589;22;45251;-71
2023/10/22 07:56:06;;;;;;;;;4.33;2.00;;;;;;;;6308616;22;45357;-70
2023/10/22 07:58:32;;;;;;;;;3.00;2.00;;;;;;;;6309193;22;45196;-68
2023/10/22 08:00:57;;;;;;;;;3.00;3.00;;;;;;;;6308789;22;45342;-69
2023/10/22 08:03:22;;;;;;;;;4.00;2.67;;;;;;;;6280844;22;45465;-69
2023/10/22 08:05:48;;;;;;;;;2.67;2.67;;;;;;;;6311710;22;45213;-69
2023/10/22 08:08:13;;;;;;;;;3.00;3.00;;;;;;;;6341189;22;45297;-69
2023/10/22 08:10:38;;;;;;;;;4.00;4.00;;;;;;;;6312826;22;45176;-71
2023/10/22 08:13:03;;;;;;;;;7.67;4.00;;;;;;;;6340167;22;45152;-70
2023/10/22 08:15:28;;;;;;;;;4.67;3.67;;;;;;;;6340286;22;45391;-70
2023/10/22 08:17:54;;;;;;;;;10.00;5.33;;;;;;;;6340368;22;45144;-70
2023/10/22 08:20:19;;;;;;;;;8.00;7.00;;;;;;;;6339628;22;45385;-70
2023/10/22 08:22:44;;;;;;;;;6.33;4.67;;;;;;;;6340180;22;45443;-70
2023/10/22 08:25:09;;;;;;;;;7.00;4.00;;;;;;;;6309873;22;46978;-70
2023/10/22 08:27:34;;;;;;;;;5.67;4.00;;;;;;;;6340244;22;45273;-71
2023/10/22 08:30:00;;;;;;;;;4.67;3.00;;;;;;;;6340340;22;45301;-70
2023/10/22 08:32:25;;;;;;;;;4.00;3.67;;;;;;;;6339643;22;45524;-71
2023/10/22 08:34:50;;;;;;;;;11.33;5.33;;;;;;;;6339790;22;46296;-70
2023/10/22 08:37:16;;;;;;;;;8.67;4.00;;;;;;;;6339200;22;45345;-71
2023/10/22 08:39:41;;;;;;;;;10.33;5.67;;;;;;;;6338679;22;45244;-71
2023/10/22 08:42:09;;;;;;;;;4.33;4.33;;;;;;;;6311245;22;45833;-71
2023/10/22 08:44:40;;;;;;;;;4.67;3.00;;;;;;;;6311755;22;47486;-70
2023/10/22 08:47:07;;;;;;;;;5.33;2.00;;;;;;;;6339601;22;45304;-71
2023/10/22 08:49:34;;;;;;;;;5.67;4.33;;;;;;;;6339881;22;45266;-71
2023/10/22 08:51:59;;;;;;;;;4.67;3.00;;;;;;;;6309769;22;45851;-69
2023/10/22 08:54:26;;;;;;;;;4.00;2.67;;;;;;;;6340145;22;45244;-70
2023/10/22 08:56:51;;;;;;;;;6.67;3.00;;;;;;;;6337859;22;45333;-71
2023/10/22 08:59:16;;;;;;;;;7.00;3.00;;;;;;;;6340182;22;45254;-70
2023/10/22 09:01:42;;;;;;;;;3.00;3.00;;;;;;;;6338928;22;45493;-70
2023/10/22 09:04:07;;;;;;;;;5.67;4.33;;;;;;;;6340079;22;45265;-71
2023/10/22 09:06:32;;;;;;;;;3.00;1.67;;;;;;;;6339070;22;45258;-70
2023/10/22 09:08:57;;;;;;;;;2.00;1.00;;;;;;;;6340082;22;45292;-70
2023/10/22 09:11:24;;;;;;;;;2.00;2.00;;;;;;;;6337314;22;45201;-70
2023/10/22 09:13:49;;;;;;;;;3.67;2.00;;;;;;;;6339444;22;46997;-71
2023/10/22 09:16:27;;;;;;;;;5.00;3.67;;;;;;;;6339789;22;45342;-70
2023/10/22 09:18:52;;;;;;;;;3.67;3.33;;;;;;;;6338347;22;45239;-70
2023/10/22 09:21:17;;;;;;;;;4.00;3.00;;;;;;;;6338476;22;45653;-70
2023/10/22 09:23:43;;;;;;;;;4.67;3.00;;;;;;;;6310996;22;46154;-70
2023/10/22 09:26:09;;;;;;;;;4.33;3.00;;;;;;;;6340046;22;45298;-70
2023/10/22 09:28:34;;;;;;;;;9.33;5.00;;;;;;;;6311212;22;45290;-70
2023/10/22 09:31:03;;;;;;;;;6.00;6.00;;;;;;;;6339103;22;45463;-71
2023/10/22 09:33:36;;;;;;;;;4.00;3.00;;;;;;;;6339406;22;45310;-70
2023/10/22 09:36:01;;;;;;;;;4.33;3.00;;;;;;;;6338169;22;45484;-70
2023/10/22 09:38:48;;;;;;;;;4.00;2.00;;;;;;;;6338287;22;45326;-70
2023/10/22 09:41:23;;;;;;;;;2.67;1.00;;;;;;;;6337476;22;45235;-71
2023/10/22 09:43:49;;;;;;;;;4.00;1.00;;;;;;;;6338251;22;46405;-70
2023/10/22 09:46:15;;;;;;;;;2.67;2.00;;;;;;;;6338034;22;45246;-70
2023/10/22 09:48:40;;;;;;;;;4.00;2.00;;;;;;;;6337862;22;45221;-70
2023/10/22 09:51:06;;;;;;;;;5.00;2.00;;;;;;;;6338006;22;45261;-70
2023/10/22 09:53:36;;;;;;;;;1.00;1.00;;;;;;;;6335982;22;45251;-70
2023/10/22 09:56:06;;;;;;;;;6.67;2.00;;;;;;;;6338208;22;45409;-71
2023/10/22 09:58:33;;;;;;;;;4.67;3.67;;;;;;;;6308383;22;45280;-72
2023/10/22 10:00:59;;;;;;;;;4.67;4.00;;;;;;;;6338359;22;45267;-71
2023/10/22 10:03:24;;;;;;;;;1.67;1.67;;;;;;;;6338246;22;45353;-71
2023/10/22 10:05:51;;;;;;;;;3.33;2.00;;;;;;;;6308677;22;45704;-71
2023/10/22 10:08:17;;;;;;;;;1.33;1.33;;;;;;;;6336950;22;45329;-72
2023/10/22 10:10:42;;;;;;;;;2.67;1.00;;;;;;;;6337180;22;45358;-70
2023/10/22 10:13:08;;;;;;;;;4.67;2.00;;;;;;;;6309762;22;47706;-72
2023/10/22 10:15:34;;;;;;;;;3.33;2.00;;;;;;;;6338614;22;45302;-71
2023/10/22 10:18:01;;;;;;;;;1.00;1.00;;;;;;;;6311435;22;45247;-71
2023/10/22 10:20:27;;;;;;;;;2.33;1.67;;;;;;;;6309566;22;45860;-71
2023/10/22 10:23:08;;;;;;;;;3.00;0.67;;;;;;;;6310124;22;46687;-72
2023/10/22 10:25:34;;;;;;;;;1.67;1.67;;;;;;;;6310911;22;45243;-71
2023/10/22 10:28:01;;;;;;;;;2.00;0.67;;;;;;;;6312636;22;45227;-71
2023/10/22 10:30:27;;;;;;;;;3.00;0.67;;;;;;;;6340548;22;45171;-72
2023/10/22 10:32:52;;;;;;;;;2.33;1.33;;;;;;;;6341123;22;45132;-72
2023/10/22 10:35:18;;;;;;;;;1.00;0.67;;;;;;;;6340544;22;45148;-72
2023/10/22 10:38:02;;;;;;;;;0.67;0.67;;;;;;;;6312860;22;45385;-72
2023/10/22 10:40:41;;;;;;;;;0.67;0.67;;;;;;;;6340724;22;45113;-72
2023/10/22 10:43:06;;;;;;;;;7.00;2.00;;;;;;;;6311934;22;47407;-72
2023/10/22 10:45:31;;;;;;;;;1.00;1.00;;;;;;;;6340663;22;45179;-72
2023/10/22 10:47:56;;;;;;;;;2.67;1.67;;;;;;;;6313102;22;45420;-71
2023/10/22 10:50:21;;;;;;;;;2.00;1.00;;;;;;;;6340311;22;45322;-71
2023/10/22 10:52:46;;;;;;;;;3.67;1.00;;;;;;;;6340924;22;45286;-70
2023/10/22 10:55:15;;;;;;;;;6.00;5.00;;;;;;;;6340797;22;45272;-72
2023/10/22 10:57:45;;;;;;;;;3.33;2.67;;;;;;;;6340963;22;45093;-70
2023/10/22 11:00:19;;;;;;;;;10.00;7.00;;;;;;;;6339786;22;45277;-70
2023/10/22 11:02:45;;;;;;;;;5.67;3.00;;;;;;;;6341674;22;45311;-70
2023/10/22 11:05:10;;;;;;;;;2.67;1.00;;;;;;;;6310953;22;45298;-70
2023/10/22 11:07:36;;;;;;;;;2.00;1.00;;;;;;;;6340281;22;45480;-72
2023/10/22 11:10:14;;;;;;;;;6.33;5.33;;;;;;;;6340543;22;45267;-71
2023/10/22 11:12:40;;;;;;;;;8.67;7.00;;;;;;;;6340735;22;45188;-71
2023/10/22 11:15:07;;;;;;;;;2.33;1.00;;;;;;;;6312420;22;45175;-71
2023/10/22 11:17:32;;;;;;;;;4.67;2.67;;;;;;;;6311915;22;45232;-72
2023/10/22 11:19:57;;;;;;;;;3.33;2.00;;;;;;;;6340317;22;45318;-71
2023/10/22 11:22:23;;;;;;;;;5.33;0.67;;;;;;;;6312157;22;46603;-71
2023/10/22 11:24:49;;;;;;;;;7.75;1.00;;;;;;;;6340610;22;45192;-72
2023/10/22 11:27:15;;;;;;;;;3.00;2.00;;;;;;;;6340914;22;45367;-72
2023/10/22 11:29:44;;;;;;;;;2.00;2.00;;;;;;;;6339793;22;45402;-73
2023/10/22 11:32:14;;;;;;;;;2.67;2.00;;;;;;;;6340472;22;45508;-73
2023/10/22 11:34:49;;;;;;;;;1.00;1.00;;;;;;;;6341091;22;45353;-72
2023/10/22 11:37:14;;;;;;;;;4.33;3.33;;;;;;;;6339268;22;45283;-72
2023/10/22 11:39:41;;;;;;;;;1.00;1.00;;;;;;;;6339808;22;45458;-72
2023/10/22 11:42:07;;;;;;;;;1.00;1.00;;;;;;;;6341596;22;45380;-71
2023/10/22 11:44:36;;;;;;;;;3.00;0.67;;;;;;;;6341770;22;45242;-71
2023/10/22 11:47:02;;;;;;;;;5.75;1.00;;;;;;;;6342176;22;45150;-72
2023/10/22 11:49:28;;;;;;;;;3.00;1.00;;;;;;;;6340911;22;45159;-72
2023/10/22 11:51:53;;;;;;;;;2.00;2.00;;;;;;;;6312324;22;45634;-72
2023/10/22 11:54:19;;;;;;;;;2.67;2.00;;;;;;;;6311558;22;45522;-73
2023/10/22 11:56:45;;;;;;;;;1.67;1.00;;;;;;;;6340476;22;45502;-72
2023/10/22 11:59:10;;;;;;;;;4.00;1.00;;;;;;;;6340790;22;45246;-72
2023/10/22 12:01:35;;;;;;;;;2.00;2.00;;;;;;;;6339952;22;45203;-71
2023/10/22 12:04:00;;;;;;;;;1.00;1.00;;;;;;;;6312320;22;45426;-71
2023/10/22 12:06:25;;;;;;;;;3.33;3.33;;;;;;;;6338937;22;45321;-70
2023/10/22 12:08:51;;;;;;;;;4.33;1.00;;;;;;;;6339815;22;45230;-70
2023/10/22 12:11:16;;;;;;;;;0.00;0.00;;;;;;;;6337454;22;45254;-70
2023/10/22 12:13:41;;;;;;;;;3.00;1.33;;;;;;;;6337899;22;45447;-71
2023/10/22 12:16:06;;;;;;;;;11.33;8.33;;;;;;;;6337572;22;45378;-71
2023/10/22 12:18:32;;;;;;;;;7.33;3.67;;;;;;;;6337958;22;45532;-70
2023/10/22 12:20:57;;;;;;;;;11.33;6.33;;;;;;;;6337020;22;45473;-70
2023/10/22 12:23:22;;;;;;;;;3.33;3.00;;;;;;;;6338124;22;45393;-70
2023/10/22 12:25:47;;;;;;;;;14.33;9.33;;;;;;;;6310800;22;45573;-70
2023/10/22 12:28:13;;;;;;;;;6.33;4.67;;;;;;;;6340425;22;45316;-70
2023/10/22 12:30:41;;;;;;;;;2.00;1.00;;;;;;;;6340653;22;45236;-70
2023/10/22 12:33:08;;;;;;;;;2.33;2.00;;;;;;;;6340325;22;45235;-70
2023/10/22 12:35:37;;;;;;;;;3.00;3.00;;;;;;;;6339748;22;45305;-70
2023/10/22 12:38:02;;;;;;;;;4.67;2.67;;;;;;;;6339957;22;45474;-70
2023/10/22 12:40:27;;;;;;;;;13.67;9.00;;;;;;;;6339853;22;45349;-70
2023/10/22 12:42:52;;;;;;;;;10.00;7.67;;;;;;;;6340404;22;45227;-71
2023/10/22 12:45:18;;;;;;;;;16.33;13.67;;;;;;;;6339960;22;45305;-71
2023/10/22 12:47:43;;;;;;;;;161.00;144.67;;;;;;;;6340223;22;45219;-71
2023/10/22 12:50:08;;;;;;;;;104.50;95.75;;;;;;;;6339481;22;45391;-71
2023/10/22 12:52:34;;;;;;;;;4.33;3.00;;;;;;;;6340336;22;45211;-71
2023/10/22 12:54:59;;;;;;;;;147.75;134.25;;;;;;;;6338294;22;45434;-71
2023/10/22 12:57:24;;;;;;;;;8.00;6.67;;;;;;;;6312220;22;45745;-72
2023/10/22 12:59:49;;;;;;;;;7.67;3.00;;;;;;;;6339461;22;46073;-71
2023/10/22 13:02:15;;;;;;;;;6.67;5.67;;;;;;;;6340073;22;45120;-72
2023/10/22 13:04:40;;;;;;;;;36.67;29.67;;;;;;;;6340393;22;45179;-71
2023/10/22 13:07:06;;;;;;;;;18.00;16.33;;;;;;;;6338865;22;45151;-71
2023/10/22 13:09:31;;;;;;;;;3.00;1.00;;;;;;;;6340538;22;45146;-71
2023/10/22 13:11:56;;;;;;;;;3.00;2.00;;;;;;;;6339136;22;45089;-71
2023/10/22 13:14:21;;;;;;;;;2.00;2.00;;;;;;;;6311666;22;45300;-71
2023/10/22 13:16:48;;;;;;;;;1.67;1.67;;;;;;;;6339149;22;45228;-72
2023/10/22 13:19:13;;;;;;;;;6.33;5.00;;;;;;;;6339313;22;45195;-73
2023/10/22 13:21:38;;;;;;;;;2.67;2.67;;;;;;;;6339388;22;45253;-73
2023/10/22 13:24:04;;;;;;;;;1.33;0.33;;;;;;;;6340201;22;45150;-74
2023/10/22 13:26:31;;;;;;;;;0.33;0.33;;;;;;;;6337708;22;45388;-74
2023/10/22 13:28:56;;;;;;;;;17.00;12.67;;;;;;;;6339024;22;45252;-74
2023/10/22 13:31:21;;;;;;;;;15.00;13.67;;;;;;;;6339243;22;45208;-74
2023/10/22 13:33:46;;;;;;;;;0.00;0.00;;;;;;;;6311901;22;44693;-74
2023/10/22 13:36:12;;;;;;;;;1.67;1.00;;;;;;;;6310741;22;46238;-74
2023/10/22 13:38:37;;;;;;;;;19.00;12.00;;;;;;;;6339790;22;45317;-75
2023/10/22 13:41:03;;;;;;;;;15.67;13.33;;;;;;;;6340508;22;45294;-73
2023/10/22 13:43:28;;;;;;;;;4.67;1.67;;;;;;;;6341585;22;45260;-74
2023/10/22 13:45:53;;;;;;;;;5.33;4.33;;;;;;;;6340740;22;45318;-74
2023/10/22 13:48:18;;;;;;;;;57.00;44.75;;;;;;;;6341376;22;45472;-74
2023/10/22 13:50:44;;;;;;;;;44.00;33.67;;;;;;;;6340574;22;45194;-75
2023/10/22 13:53:09;;;;;;;;;20.67;16.00;;;;;;;;6341854;22;45390;-74
2023/10/22 13:55:34;;;;;;;;;2.33;2.33;;;;;;;;6342894;22;45170;-73
2023/10/22 13:58:00;;;;;;;;;2.67;1.67;;;;;;;;6343617;22;46412;-74
2023/10/22 14:00:25;;;;;;;;;1.33;1.00;;;;;;;;6341655;22;44656;-72
2023/10/22 14:02:50;;;;;;;;;2.33;1.00;;;;;;;;6341324;22;45207;-72
2023/10/22 14:05:15;;;;;;;;;3.67;3.67;;;;;;;;6341063;22;45383;-73
2023/10/22 14:07:41;;;;;;;;;2.33;1.00;;;;;;;;6282969;22;47507;-73
2023/10/22 14:10:07;;;;;;;;;0.33;0.33;;;;;;;;6309068;22;45324;-71
2023/10/22 14:12:32;;;;;;;;;1.33;1.00;;;;;;;;6309508;22;45453;-73
2023/10/22 14:14:57;;;;;;;;;3.00;1.67;;;;;;;;6309255;22;45183;-73
2023/10/22 14:17:23;;;;;;;;;1.67;0.67;;;;;;;;6309139;22;45283;-73
2023/10/22 14:19:51;;;;;;;;;1.00;0.00;;;;;;;;6309243;22;45069;-73
2023/10/22 14:22:16;;;;;;;;;1.67;0.67;;;;;;;;6308957;22;45282;-74
2023/10/22 14:24:41;;;;;;;;;6.00;1.00;;;;;;;;6309760;22;45235;-73
2023/10/22 14:27:07;;;;;;;;;1.00;1.00;;;;;;;;6309116;22;45448;-73
2023/10/22 14:29:32;;;;;;;;;4.67;0.67;;;;;;;;6309310;22;45313;-73
2023/10/22 14:31:58;;;;;;;;;2.33;1.33;;;;;;;;6309344;22;45093;-75
2023/10/22 14:34:23;;;;;;;;;3.00;2.00;;;;;;;;6311395;22;45138;-73
2023/10/22 14:36:48;;;;;;;;;1.00;1.00;;;;;;;;6309905;22;45249;-73
2023/10/22 14:39:14;;;;;;;;;3.00;0.67;;;;;;;;6311664;22;44680;-74
2023/10/22 14:41:39;;;;;;;;;1.00;0.33;;;;;;;;6312658;22;45238;-74
2023/10/22 14:44:04;;;;;;;;;6.00;2.00;;;;;;;;6309893;22;45214;-75
2023/10/22 14:46:30;;;;;;;;;4.00;0.00;;;;;;;;6309073;22;45533;-74
2023/10/22 14:48:57;;;;;;;;;0.67;0.67;;;;;;;;6281587;22;45201;-73
2023/10/22 14:51:23;;;;;;;;;0.67;0.67;;;;;;;;6307510;22;45145;-73
2023/10/22 14:53:48;;;;;;;;;1.00;1.00;;;;;;;;6281381;22;45374;-74
2023/10/22 14:56:14;;;;;;;;;1.67;0.67;;;;;;;;6309418;22;45173;-74
2023/10/22 14:58:39;;;;;;;;;2.33;1.00;;;;;;;;6309911;22;45317;-73
2023/10/22 15:01:06;;;;;;;;;2.33;0.67;;;;;;;;6309425;22;45334;-73
2023/10/22 15:03:31;;;;;;;;;2.33;2.00;;;;;;;;6309177;22;45491;-73
2023/10/22 15:05:57;;;;;;;;;5.00;2.00;;;;;;;;6313018;22;45859;-73
2023/10/22 15:08:22;;;;;;;;;1.67;1.00;;;;;;;;6341100;22;45254;-73
2023/10/22 15:10:47;;;;;;;;;2.00;1.00;;;;;;;;6340473;22;44741;-73
2023/10/22 15:13:13;;;;;;;;;1.00;1.00;;;;;;;;6340938;22;45315;-72
2023/10/22 15:15:39;;;;;;;;;3.33;2.00;;;;;;;;6341572;22;45833;-73
2023/10/22 15:18:05;;;;;;;;;1.33;1.00;;;;;;;;6344550;22;45251;-74
2023/10/22 15:20:57;;;;;;;;;2.67;1.00;;;;;;;;6342097;22;45273;-74
2023/10/22 15:23:22;;;;;;;;;0.67;0.67;;;;;;;;6308195;22;45250;-72
2023/10/22 15:25:49;;;;;;;;;0.67;0.67;;;;;;;;6341218;22;45234;-73
2023/10/22 15:28:15;;;;;;;;;2.67;1.00;;;;;;;;6341106;22;45221;-72
2023/10/22 15:30:40;;;;;;;;;3.33;1.33;;;;;;;;6340816;22;45163;-72
2023/10/22 15:33:06;;;;;;;;;0.67;0.67;;;;;;;;6286805;22;45489;-74
2023/10/22 15:35:31;;;;;;;;;3.67;0.67;;;;;;;;6311282;22;46930;-74
2023/10/22 15:37:59;;;;;;;;;0.67;0.67;;;;;;;;6341058;22;45290;-73
2023/10/22 15:40:28;;;;;;;;;5.33;1.00;;;;;;;;6340688;22;45305;-74
2023/10/22 15:42:54;;;;;;;;;3.67;0.67;;;;;;;;6340962;22;45391;-74
2023/10/22 15:45:21;;;;;;;;;3.00;0.67;;;;;;;;6340587;22;45212;-74
2023/10/22 15:47:51;;;;;;;;;0.00;0.00;;;;;;;;6340430;22;45168;-74
2023/10/22 15:50:18;;;;;;;;;1.67;0.33;;;;;;;;6340508;22;45231;-74
2023/10/22 15:52:43;;;;;;;;;1.67;0.00;;;;;;;;6312518;22;46330;-73
2023/10/22 15:55:08;;;;;;;;;0.67;0.67;;;;;;;;6340507;22;46044;-73
2023/10/22 15:57:33;;;;;;;;;1.00;1.00;;;;;;;;6341155;22;45207;-73
2023/10/22 15:59:59;;;;;;;;;2.67;2.33;;;;;;;;6340866;22;45093;-73
2023/10/22 16:02:24;;;;;;;;;1.67;1.67;;;;;;;;6341258;22;45159;-73
2023/10/22 16:04:49;;;;;;;;;4.33;2.00;;;;;;;;6339671;22;45362;-73
2023/10/22 16:07:15;;;;;;;;;2.67;2.67;;;;;;;;6340109;22;45157;-73
2023/10/22 16:09:40;;;;;;;;;2.33;2.00;;;;;;;;6340881;22;45239;-73
2023/10/22 16:12:06;;;;;;;;;3.67;3.67;;;;;;;;6311837;22;46076;-73
2023/10/22 16:14:33;;;;;;;;;6.33;4.00;;;;;;;;6339157;22;45960;-73
2023/10/22 16:16:58;;;;;;;;;7.67;6.33;;;;;;;;6336985;22;45600;-72
2023/10/22 16:19:23;;;;;;;;;6.33;6.00;;;;;;;;6340054;22;45418;-72
2023/10/22 16:21:48;;;;;;;;;7.33;6.33;;;;;;;;6339686;22;45306;-72
2023/10/22 16:24:14;;;;;;;;;19.00;15.33;;;;;;;;6339146;22;45582;-74
2023/10/22 16:26:39;;;;;;;;;13.67;12.33;;;;;;;;6340062;22;45177;-72
2023/10/22 16:29:05;;;;;;;;;16.00;11.33;;;;;;;;6338985;22;45247;-71
2023/10/22 16:31:30;;;;;;;;;10.67;8.67;;;;;;;;6340071;22;45262;-72
2023/10/22 16:33:56;;;;;;;;;10.33;9.33;;;;;;;;6311644;22;45533;-72
2023/10/22 16:36:21;;;;;;;;;5.00;2.00;;;;;;;;6339790;22;45396;-72
2023/10/22 16:38:46;;;;;;;;;4.00;2.33;;;;;;;;6339481;22;45806;-72
2023/10/22 16:41:11;;;;;;;;;2.00;1.67;;;;;;;;6340185;22;44701;-73
2023/10/22 16:43:37;;;;;;;;;5.67;4.67;;;;;;;;6340116;22;45223;-72
2023/10/22 16:46:02;;;;;;;;;3.33;2.67;;;;;;;;6339882;22;45212;-72
2023/10/22 16:48:31;;;;;;;;;3.67;3.33;;;;;;;;6340419;22;45164;-71
2023/10/22 16:51:00;;;;;;;;;3.33;3.33;;;;;;;;6339611;22;45171;-72
2023/10/22 16:53:25;;;;;;;;;4.00;4.00;;;;;;;;6339287;22;45508;-72
2023/10/22 16:55:50;;;;;;;;;6.67;5.00;;;;;;;;6339695;22;45289;-72
2023/10/22 16:58:16;;;;;;;;;5.33;4.00;;;;;;;;6339891;22;45272;-72
2023/10/22 17:00:41;;;;;;;;;6.67;5.67;;;;;;;;6339360;22;45189;-72
2023/10/22 17:03:06;;;;;;;;;5.00;5.00;;;;;;;;6339993;22;46222;-72
2023/10/22 17:05:31;;;;;;;;;2.67;2.67;;;;;;;;6306675;22;45578;-71
2023/10/22 17:07:56;;;;;;;;;5.33;4.33;;;;;;;;6339209;22;45509;-72
2023/10/22 17:10:21;;;;;;;;;4.67;4.67;;;;;;;;6339877;22;45467;-72
2023/10/22 17:12:47;;;;;;;;;3.33;3.33;;;;;;;;6338895;22;46019;-71
2023/10/22 17:15:12;;;;;;;;;5.00;3.67;;;;;;;;6340823;22;45170;-71
2023/10/22 17:17:37;;;;;;;;;5.00;4.00;;;;;;;;6342009;22;45223;-71
2023/10/22 17:20:03;;;;;;;;;6.00;5.00;;;;;;;;6339214;22;45287;-71
2023/10/22 17:22:28;;;;;;;;;8.67;8.00;;;;;;;;6341050;22;45255;-71
2023/10/22 17:24:54;;;;;;;;;10.33;9.00;;;;;;;;6341498;22;45246;-71
2023/10/22 17:27:19;;;;;;;;;11.00;10.00;;;;;;;;6341413;22;45202;-71
2023/10/22 17:29:45;;;;;;;;;9.67;8.33;;;;;;;;6341392;22;45124;-71
2023/10/22 17:32:10;;;;;;;;;18.67;17.67;;;;;;;;6312912;22;47061;-71
2023/10/22 17:34:36;;;;;;;;;19.00;16.67;;;;;;;;6312209;22;45172;-70
2023/10/22 17:37:01;;;;;;;;;16.00;15.67;;;;;;;;6341180;22;45090;-71
2023/10/22 17:39:26;;;;;;;;;44.50;37.50;;;;;;;;6341712;22;44605;-71
2023/10/22 17:41:51;;;;;;;;;31.00;28.00;;;;;;;;6341073;22;45223;-72
2023/10/22 17:44:16;;;;;;;;;38.00;30.75;;;;;;;;6341507;22;45280;-72
2023/10/22 17:46:42;;;;;;;;;46.00;35.25;;;;;;;;6341268;22;45148;-71
2023/10/22 17:49:07;;;;;;;;;50.00;38.25;;;;;;;;6341660;22;45161;-72
2023/10/22 17:51:33;;;;;;;;;32.50;30.50;;;;;;;;6312393;22;47968;-72
2023/10/22 17:53:58;;;;;;;;;33.50;29.25;;;;;;;;6313094;22;45227;-72
2023/10/22 17:56:24;;;;;;;;;32.00;26.00;;;;;;;;6340976;22;44751;-71
2023/10/22 17:58:50;;;;;;;;;31.25;22.50;;;;;;;;6341453;22;45338;-71
2023/10/22 18:01:15;;;;;;;;;24.67;20.67;;;;;;;;6338868;22;45297;-71
2023/10/22 18:03:40;;;;;;;;;19.75;18.75;;;;;;;;6312443;22;45327;-72
2023/10/22 18:06:06;;;;;;;;;18.33;16.33;;;;;;;;6339638;22;45738;-71
2023/10/22 18:08:33;;;;;;;;;56.00;41.00;;;;;;;;6312789;22;46026;-70
2023/10/22 18:10:59;;;;;;;;;33.75;27.75;;;;;;;;6339087;22;45492;-71
2023/10/22 18:13:27;;;;;;;;;55.25;40.00;;;;;;;;6340986;22;45239;-71
2023/10/22 18:15:55;;;;;;;;;32.75;26.75;;;;;;;;6311381;22;45196;-71
2023/10/22 18:18:21;;;;;;;;;37.25;32.00;;;;;;;;6340998;22;45183;-71
2023/10/22 18:20:46;;;;;;;;;31.50;27.75;;;;;;;;6340234;22;45572;-71
2023/10/22 18:23:11;;;;;;;;;34.75;32.00;;;;;;;;6312536;22;45692;-71
2023/10/22 18:25:37;;;;;;;;;37.50;32.00;;;;;;;;6311683;22;45283;-72
2023/10/22 18:28:03;;;;;;;;;34.00;32.00;;;;;;;;6340338;22;45287;-71
2023/10/22 18:30:28;;;;;;;;;27.50;23.25;;;;;;;;6340447;22;45857;-71
2023/10/22 18:32:53;;;;;;;;;39.00;34.25;;;;;;;;6341230;22;45243;-71
2023/10/22 18:35:18;;;;;;;;;36.50;26.25;;;;;;;;6312497;22;45236;-71
2023/10/22 18:37:43;;;;;;;;;35.25;29.75;;;;;;;;6341184;22;45223;-71
2023/10/22 18:40:09;;;;;;;;;23.75;18.25;;;;;;;;6340736;22;45357;-70
2023/10/22 18:42:34;;;;;;;;;16.75;16.00;;;;;;;;6340960;22;45270;-71
2023/10/22 18:44:59;;;;;;;;;18.75;13.00;;;;;;;;6341021;22;45241;-71
2023/10/22 18:47:24;;;;;;;;;14.00;12.25;;;;;;;;6340872;22;45205;-71
2023/10/22 18:49:50;;;;;;;;;24.25;18.00;;;;;;;;6340321;22;46150;-71
2023/10/22 18:52:15;;;;;;;;;26.00;21.25;;;;;;;;6340726;22;45247;-71
2023/10/22 18:54:40;;;;;;;;;14.75;13.00;;;;;;;;6341547;22;45387;-71
2023/10/22 18:57:06;;;;;;;;;15.25;13.25;;;;;;;;6340777;22;45443;-71
2023/10/22 18:59:31;;;;;;;;;24.50;20.50;;;;;;;;6340818;22;45881;-71
2023/10/22 19:01:56;;;;;;;;;17.75;15.25;;;;;;;;6312161;22;45094;-71
2023/10/22 19:04:21;;;;;;;;;18.75;15.00;;;;;;;;6312845;22;45330;-71
2023/10/22 19:06:47;;;;;;;;;16.50;13.25;;;;;;;;6339603;22;45611;-71
2023/10/22 19:09:12;;;;;;;;;18.25;16.50;;;;;;;;6340866;22;45257;-71
2023/10/22 19:11:38;;;;;;;;;16.50;13.00;;;;;;;;6340598;22;45269;-71
2023/10/22 19:14:04;;;;;;;;;15.50;15.50;;;;;;;;6341025;22;45186;-71
2023/10/22 19:16:32;;;;;;;;;21.00;19.00;;;;;;;;6311279;22;45125;-71
2023/10/22 19:18:59;;;;;;;;;12.25;12.00;;;;;;;;6340491;22;45283;-70
2023/10/22 19:21:24;;;;;;;;;21.50;14.50;;;;;;;;6340162;22;45373;-70
2023/10/22 19:23:49;;;;;;;;;19.00;16.25;;;;;;;;6340869;22;45286;-70
2023/10/22 19:26:15;;;;;;;;;15.25;13.75;;;;;;;;6340434;22;45262;-69
2023/10/22 19:28:40;;;;;;;;;20.75;17.75;;;;;;;;6340631;22;45631;-70
2023/10/22 19:31:09;;;;;;;;;18.50;15.25;;;;;;;;6340721;22;45342;-70
2023/10/22 19:33:34;;;;;;;;;13.50;12.75;;;;;;;;6341134;22;45210;-70
2023/10/22 19:35:59;;;;;;;;;19.25;18.25;;;;;;;;6340035;22;45508;-70
2023/10/22 19:38:28;;;;;;;;;23.50;18.00;;;;;;;;6340615;22;45315;-70
2023/10/22 19:40:53;;;;;;;;;21.75;17.25;;;;;;;;6338926;22;45295;-70
2023/10/22 19:43:19;;;;;;;;;17.50;13.75;;;;;;;;6339971;22;45204;-70
2023/10/22 19:45:47;;;;;;;;;20.75;17.00;;;;;;;;6340365;22;45244;-69
2023/10/22 19:48:12;;;;;;;;;18.25;15.50;;;;;;;;6312418;22;47234;-70
2023/10/22 19:50:38;;;;;;;;;16.25;13.00;;;;;;;;6339840;22;45287;-70
2023/10/22 19:53:03;;;;;;;;;23.75;15.50;;;;;;;;6340903;22;45200;-70
2023/10/22 19:55:28;;;;;;;;;17.75;15.75;;;;;;;;6340513;22;45255;-70
2023/10/22 19:57:55;;;;;;;;;15.25;14.75;;;;;;;;6340771;22;45474;-71
2023/10/22 20:00:20;;;;;;;;;15.00;13.25;;;;;;;;6339081;22;45323;-69
2023/10/22 20:02:45;;;;;;;;;10.00;8.25;;;;;;;;6340827;22;45274;-69
2023/10/22 20:05:10;;;;;;;;;13.00;13.00;;;;;;;;6339907;22;45481;-69
2023/10/22 20:07:36;;;;;;;;;14.00;12.25;;;;;;;;6339820;22;45281;-70
2023/10/22 20:10:01;;;;;;;;;16.00;12.00;;;;;;;;6340332;22;45294;-71
2023/10/22 20:12:26;;;;;;;;;19.00;17.25;;;;;;;;6340336;22;45211;-71
2023/10/22 20:14:51;;;;;;;;;25.50;20.50;;;;;;;;6340499;22;45286;-71
2023/10/22 20:17:17;;;;;;;;;22.00;21.00;;;;;;;;6311780;22;46838;-71
2023/10/22 20:19:42;;;;;;;;;27.25;22.75;;;;;;;;6311817;22;45288;-70
2023/10/22 20:22:07;;;;;;;;;30.75;25.75;;;;;;;;6340134;22;45549;-70
2023/10/22 20:24:33;;;;;;;;;26.75;21.75;;;;;;;;6340906;22;45438;-70
2023/10/22 20:26:59;;;;;;;;;19.50;17.50;;;;;;;;6339838;22;45579;-71
2023/10/22 20:29:25;;;;;;;;;25.25;22.75;;;;;;;;6312465;22;45271;-70
2023/10/22 20:31:50;;;;;;;;;31.00;25.50;;;;;;;;6339859;22;45377;-71
2023/10/22 20:34:17;;;;;;;;;24.00;20.00;;;;;;;;6340566;22;45440;-71